Time;durP1;ratioP1;P1;durP2;ratioP2;P2;SDS_P1;SDS_P2;PMS_P1;PMS_P2;Temp;Humidity;BMP_temperature;BMP_pressure;BME280_temperature;BME280_humidity;BME280_pressure;Samples;Min_cycle;Max_cycle;Signal;HPM_P1;HPM_P2
2022/01/14 00:02:18;;;;;;;28.33;13.10;;;;;;;;;;4898933;29;20519;-77
2022/01/14 00:04:44;;;;;;;26.83;12.30;;;;;;;;;;4898354;29;20650;-77
2022/01/14 00:07:10;;;;;;;41.83;13.00;;;;;;;;;;4956195;23;20240;-77
2022/01/14 00:09:38;;;;;;;28.63;12.30;;;;;;;;;;4905187;29;20585;-77
2022/01/14 00:12:15;;;;;;;29.87;12.17;;;;;;;;;;4920426;29;20216;-77
2022/01/14 00:14:44;;;;;;;40.80;11.50;;;;;;;;;;4920167;29;20184;-78
2022/01/14 00:17:11;;;;;;;46.20;12.43;;;;;;;;;;4920786;29;20538;-77
2022/01/14 00:19:38;;;;;;;30.73;11.10;;;;;;;;;;4920289;29;20286;-78
2022/01/14 00:22:09;;;;;;;23.73;11.23;;;;;;;;;;4904640;29;20189;-77
2022/01/14 00:33:04;;;;;;;18.53;10.10;;;;;;;;;;4922902;29;20279;-77
2022/01/14 00:35:30;;;;;;;17.57;9.80;;;;;;;;;;4920119;29;20184;-77
2022/01/14 00:37:56;;;;;;;17.37;9.67;;;;;;;;;;4904424;29;20277;-78
2022/01/14 00:40:22;;;;;;;18.40;9.83;;;;;;;;;;4919895;29;20204;-77
2022/01/14 00:42:49;;;;;;;18.67;9.90;;;;;;;;;;4919721;29;20217;-77
2022/01/14 00:45:15;;;;;;;17.17;9.93;;;;;;;;;;4936718;29;20181;-77
2022/01/14 00:47:41;;;;;;;18.50;10.30;;;;;;;;;;4919886;29;20212;-77
2022/01/14 00:50:09;;;;;;;20.03;10.80;;;;;;;;;;4904225;29;20679;-78
2022/01/14 00:52:36;;;;;;;14.90;8.83;;;;;;;;;;4919795;29;20562;-77
2022/01/14 00:55:02;;;;;;;19.00;9.33;;;;;;;;;;4936320;29;20645;-78
2022/01/14 00:59:14;;;;;;;14.57;8.80;;;;;;;;;;4903395;29;20260;-78
2022/01/14 01:00:14;;;;;;;17.70;9.23;;;;;;;;;;4922203;29;20611;-77
2022/01/14 01:02:40;;;;;;;18.20;9.83;;;;;;;;;;4919607;29;20560;-78
2022/01/14 01:05:06;;;;;;;17.30;8.50;;;;;;;;;;4903670;29;20186;-78
2022/01/14 01:07:32;;;;;;;18.00;8.77;;;;;;;;;;4903699;29;20225;-78
2022/01/14 01:09:58;;;;;;;15.80;9.07;;;;;;;;;;4919290;29;20184;-77
2022/01/14 01:12:42;;;;;;;15.40;8.67;;;;;;;;;;4919408;29;20676;-77
2022/01/14 01:15:12;;;;;;;14.73;8.07;;;;;;;;;;4919248;29;20215;-79
2022/01/14 01:17:38;;;;;;;16.87;8.30;;;;;;;;;;4936211;29;20644;-79
2022/01/14 01:20:18;;;;;;;18.97;8.37;;;;;;;;;;4936126;29;20213;-78
2022/01/14 01:22:48;;;;;;;16.47;8.43;;;;;;;;;;4920995;29;20185;-77
2022/01/14 01:25:16;;;;;;;17.77;7.83;;;;;;;;;;4918969;29;20481;-77
2022/01/14 01:27:44;;;;;;;13.37;7.63;;;;;;;;;;4919076;29;20208;-79
2022/01/14 01:33:14;;;;;;;14.20;7.77;;;;;;;;;;4914709;29;20217;-77
2022/01/14 01:35:40;;;;;;;14.90;7.90;;;;;;;;;;4914764;29;20731;-77
2022/01/14 01:38:06;;;;;;;13.67;7.73;;;;;;;;;;4919017;29;20201;-77
2022/01/14 01:40:32;;;;;;;13.93;7.13;;;;;;;;;;4903063;29;20710;-78
2022/01/14 01:43:02;;;;;;;12.87;7.53;;;;;;;;;;4903083;29;20190;-78
2022/01/14 01:45:29;;;;;;;14.17;7.93;;;;;;;;;;4935587;29;20188;-77
2022/01/14 01:47:55;;;;;;;13.90;7.17;;;;;;;;;;4918973;29;20205;-77
2022/01/14 01:50:25;;;;;;;12.17;7.00;;;;;;;;;;4935675;29;20185;-77
2022/01/14 01:52:52;;;;;;;13.17;7.17;;;;;;;;;;4918489;29;20225;-77
2022/01/14 01:55:20;;;;;;;12.90;6.80;;;;;;;;;;4918325;29;20177;-77
2022/01/14 01:57:46;;;;;;;12.97;6.93;;;;;;;;;;4918478;29;20193;-77
2022/01/14 02:00:14;;;;;;;12.83;7.10;;;;;;;;;;4918194;29;20560;-77
2022/01/14 02:02:40;;;;;;;13.23;7.57;;;;;;;;;;4918607;29;20252;-77
2022/01/14 02:05:06;;;;;;;11.97;6.73;;;;;;;;;;4917913;29;20687;-77
2022/01/14 02:07:33;;;;;;;12.90;6.53;;;;;;;;;;4918142;29;20303;-77
2022/01/14 02:09:59;;;;;;;12.03;7.13;;;;;;;;;;4918355;29;20212;-78
2022/01/14 02:12:34;;;;;;;16.17;7.13;;;;;;;;;;4902686;29;20209;-77
2022/01/14 02:15:14;;;;;;;15.83;8.10;;;;;;;;;;4918232;29;20185;-78
2022/01/14 02:18:13;;;;;;;13.37;7.00;;;;;;;;;;4918180;29;20193;-77
2022/01/14 02:23:17;;;;;;;12.23;6.90;;;;;;;;;;4935403;29;20193;-78
2022/01/14 02:25:45;;;;;;;12.73;6.77;;;;;;;;;;4902454;29;20276;-77
2022/01/14 02:28:13;;;;;;;16.97;7.83;;;;;;;;;;4902568;29;20687;-77
2022/01/14 02:30:40;;;;;;;26.90;9.03;;;;;;;;;;4918176;29;20225;-77
2022/01/14 02:33:07;;;;;;;19.00;8.90;;;;;;;;;;4917891;29;20205;-77
2022/01/14 02:35:33;;;;;;;20.00;8.07;;;;;;;;;;4917833;29;20212;-77
2022/01/14 02:37:59;;;;;;;34.57;9.80;;;;;;;;;;4902507;29;20209;-78
2022/01/14 02:40:26;;;;;;;39.20;9.77;;;;;;;;;;4902366;29;20185;-77
2022/01/14 02:42:54;;;;;;;37.90;9.87;;;;;;;;;;4917816;29;20231;-78
2022/01/14 02:45:22;;;;;;;39.50;9.73;;;;;;;;;;4917963;29;20271;-78
2022/01/14 02:47:48;;;;;;;82.03;10.97;;;;;;;;;;4917799;29;20212;-77
2022/01/14 02:50:19;;;;;;;51.20;9.67;;;;;;;;;;4902413;29;20192;-77
2022/01/14 02:55:19;;;;;;;38.47;9.83;;;;;;;;;;4934852;29;20172;-77
2022/01/14 02:57:47;;;;;;;42.60;10.03;;;;;;;;;;4917702;29;20201;-78
2022/01/14 03:00:13;;;;;;;48.53;10.30;;;;;;;;;;4917350;29;20173;-78
2022/01/14 03:02:44;;;;;;;38.93;9.03;;;;;;;;;;4917856;29;20534;-78
2022/01/14 03:05:10;;;;;;;50.87;9.80;;;;;;;;;;4902013;29;20186;-77
2022/01/14 03:07:37;;;;;;;43.10;9.13;;;;;;;;;;4917785;29;20222;-77
2022/01/14 03:10:03;;;;;;;23.27;8.37;;;;;;;;;;4917597;29;20193;-78
2022/01/14 03:12:29;;;;;;;21.57;7.90;;;;;;;;;;4934710;29;20243;-77
2022/01/14 03:14:55;;;;;;;21.47;8.13;;;;;;;;;;4917411;29;20181;-77
2022/01/14 03:17:21;;;;;;;16.37;8.63;;;;;;;;;;4902186;29;20634;-77
2022/01/14 03:19:48;;;;;;;17.40;8.40;;;;;;;;;;4903973;29;20243;-77
2022/01/14 03:22:27;;;;;;;17.03;8.37;;;;;;;;;;4905965;29;20199;-77
2022/01/14 03:27:19;;;;;;;16.30;7.80;;;;;;;;;;4921298;29;20237;-77
2022/01/14 03:29:45;;;;;;;13.33;7.10;;;;;;;;;;4905749;29;20193;-78
2022/01/14 03:32:11;;;;;;;16.37;7.83;;;;;;;;;;4905540;29;20210;-78
2022/01/14 03:34:37;;;;;;;12.93;7.33;;;;;;;;;;4905424;29;20187;-77
2022/01/14 03:37:04;;;;;;;16.40;7.97;;;;;;;;;;4920987;29;20630;-78
2022/01/14 03:39:30;;;;;;;14.77;7.73;;;;;;;;;;4920976;29;20213;-78
2022/01/14 03:41:56;;;;;;;15.47;7.33;;;;;;;;;;4921006;29;20192;-77
2022/01/14 03:44:22;;;;;;;13.47;7.40;;;;;;;;;;4905279;29;20189;-77
2022/01/14 03:46:48;;;;;;;12.10;6.87;;;;;;;;;;4905191;29;20204;-77
2022/01/14 03:49:14;;;;;;;13.33;7.23;;;;;;;;;;4921016;29;20182;-77
2022/01/14 03:51:42;;;;;;;11.87;6.53;;;;;;;;;;4905331;29;20200;-77
2022/01/14 03:54:08;;;;;;;13.80;7.57;;;;;;;;;;4904919;29;20280;-78
2022/01/14 03:56:34;;;;;;;13.47;7.13;;;;;;;;;;4920530;29;20292;-78
2022/01/14 03:59:01;;;;;;;10.80;6.77;;;;;;;;;;4904826;29;20182;-78
2022/01/14 04:01:27;;;;;;;12.80;6.90;;;;;;;;;;4920617;29;20691;-77
2022/01/14 04:03:54;;;;;;;12.23;6.77;;;;;;;;;;4904884;29;20192;-77
2022/01/14 04:06:20;;;;;;;12.97;7.00;;;;;;;;;;4920433;29;20368;-77
2022/01/14 04:08:46;;;;;;;11.90;7.10;;;;;;;;;;4904881;29;20665;-77
2022/01/14 04:11:12;;;;;;;13.87;7.53;;;;;;;;;;4920527;29;20185;-77
2022/01/14 04:13:49;;;;;;;14.57;7.57;;;;;;;;;;4920065;29;20216;-78
2022/01/14 04:16:16;;;;;;;11.53;6.03;;;;;;;;;;4920549;29;20181;-78
2022/01/14 04:18:42;;;;;;;11.57;6.60;;;;;;;;;;4920315;29;20551;-78
2022/01/14 04:21:09;;;;;;;12.60;6.60;;;;;;;;;;4920296;29;20189;-77
2022/01/14 04:23:35;;;;;;;11.60;6.57;;;;;;;;;;4919944;29;20280;-78
2022/01/14 04:26:01;;;;;;;12.13;6.87;;;;;;;;;;4920332;29;20656;-78
2022/01/14 04:28:34;;;;;;;13.60;7.23;;;;;;;;;;4920076;29;20177;-78
2022/01/14 04:31:00;;;;;;;14.70;7.23;;;;;;;;;;4904199;29;20190;-77
2022/01/14 04:33:28;;;;;;;15.70;7.30;;;;;;;;;;4919843;29;20226;-77
2022/01/14 04:35:55;;;;;;;14.47;6.97;;;;;;;;;;4919965;29;20177;-77
2022/01/14 04:38:21;;;;;;;15.17;7.70;;;;;;;;;;4919920;29;20201;-78
2022/01/14 04:40:47;;;;;;;15.87;7.60;;;;;;;;;;4920244;29;20177;-77
2022/01/14 04:43:16;;;;;;;15.53;7.80;;;;;;;;;;4904225;29;20674;-79
2022/01/14 04:45:55;;;;;;;14.80;7.60;;;;;;;;;;4919987;29;20185;-77
2022/01/14 04:48:21;;;;;;;13.53;7.07;;;;;;;;;;4919630;29;20208;-77
2022/01/14 04:50:48;;;;;;;26.97;8.10;;;;;;;;;;4919881;29;20192;-77
2022/01/14 04:53:14;;;;;;;11.93;6.90;;;;;;;;;;4919473;29;20210;-79
2022/01/14 04:55:40;;;;;;;11.40;6.63;;;;;;;;;;4919846;29;20231;-77
2022/01/14 04:58:06;;;;;;;12.03;6.73;;;;;;;;;;4904056;29;20307;-77
2022/01/14 05:00:32;;;;;;;11.73;6.67;;;;;;;;;;4903993;29;20180;-77
2022/01/14 05:02:58;;;;;;;12.73;6.50;;;;;;;;;;4919672;29;20239;-77
2022/01/14 05:05:28;;;;;;;12.10;6.60;;;;;;;;;;4919325;29;20188;-78
2022/01/14 05:07:54;;;;;;;11.50;6.53;;;;;;;;;;4919353;29;20284;-77
2022/01/14 05:12:56;;;;;;;11.07;6.27;;;;;;;;;;4936392;29;20204;-78
2022/01/14 05:15:22;;;;;;;11.67;6.27;;;;;;;;;;4903538;29;20560;-77
2022/01/14 05:17:49;;;;;;;11.77;6.10;;;;;;;;;;4919074;29;20200;-77
2022/01/14 05:20:15;;;;;;;9.70;6.13;;;;;;;;;;4919497;29;20193;-77
2022/01/14 05:22:41;;;;;;;9.63;5.73;;;;;;;;;;4903690;29;20184;-77
2022/01/14 05:25:08;;;;;;;8.17;5.50;;;;;;;;;;4903638;29;20189;-77
2022/01/14 05:27:34;;;;;;;10.50;6.40;;;;;;;;;;4918967;29;20699;-78
2022/01/14 05:30:00;;;;;;;9.47;5.57;;;;;;;;;;4919040;29;20644;-78
2022/01/14 05:32:27;;;;;;;11.60;5.87;;;;;;;;;;4903352;29;20223;-77
2022/01/14 05:34:54;;;;;;;8.60;5.70;;;;;;;;;;4903278;29;20283;-77
2022/01/14 05:37:20;;;;;;;10.10;5.80;;;;;;;;;;4903278;29;20201;-77
2022/01/14 05:39:46;;;;;;;10.63;6.13;;;;;;;;;;4918806;29;20185;-78
2022/01/14 05:42:12;;;;;;;10.53;6.10;;;;;;;;;;4902913;29;20219;-77
2022/01/14 05:44:38;;;;;;;8.60;5.43;;;;;;;;;;4903214;29;20199;-77
2022/01/14 05:47:05;;;;;;;9.17;5.50;;;;;;;;;;4918566;29;20219;-77
2022/01/14 05:49:31;;;;;;;10.57;6.27;;;;;;;;;;4918742;29;20220;-77
2022/01/14 05:51:57;;;;;;;9.97;5.60;;;;;;;;;;4918847;29;20263;-77
2022/01/14 05:54:23;;;;;;;11.07;5.70;;;;;;;;;;4918610;29;20376;-77
2022/01/14 05:56:50;;;;;;;10.40;5.97;;;;;;;;;;4903077;29;20207;-77
2022/01/14 05:59:17;;;;;;;11.80;6.43;;;;;;;;;;4918472;29;20268;-77
2022/01/14 06:01:43;;;;;;;8.63;5.50;;;;;;;;;;4903112;29;20187;-78
2022/01/14 06:04:09;;;;;;;9.93;6.00;;;;;;;;;;4918154;29;20223;-78
2022/01/14 06:12:43;;;;;;;8.93;5.67;;;;;;;;;;4877964;29;20296;-80
2022/01/14 06:15:09;;;;;;;9.40;5.73;;;;;;;;;;4911837;29;20278;-80
2022/01/14 06:17:35;;;;;;;10.40;5.63;;;;;;;;;;4918243;29;20202;-80
2022/01/14 06:20:03;;;;;;;9.40;5.47;;;;;;;;;;4902432;29;20180;-80
2022/01/14 06:22:29;;;;;;;9.23;5.30;;;;;;;;;;4918259;29;20195;-80
2022/01/14 06:24:56;;;;;;;10.87;5.27;;;;;;;;;;4902571;29;20234;-80
2022/01/14 06:27:22;;;;;;;8.63;5.53;;;;;;;;;;4918157;29;20235;-80
2022/01/14 06:29:48;;;;;;;10.73;5.70;;;;;;;;;;4902553;29;20242;-80
2022/01/14 06:32:14;;;;;;;11.17;5.60;;;;;;;;;;4918153;29;20211;-80
2022/01/14 06:34:40;;;;;;;10.87;5.73;;;;;;;;;;4917717;29;20234;-80
2022/01/14 06:37:06;;;;;;;9.03;5.27;;;;;;;;;;4902295;29;20207;-79
2022/01/14 06:39:32;;;;;;;9.17;5.40;;;;;;;;;;4902534;29;20194;-79
2022/01/14 06:41:58;;;;;;;8.87;5.67;;;;;;;;;;4902543;29;20187;-80
2022/01/14 06:44:24;;;;;;;9.20;5.47;;;;;;;;;;4902051;29;20200;-80
2022/01/14 06:46:50;;;;;;;9.70;5.87;;;;;;;;;;4902318;29;20200;-79
2022/01/14 06:49:16;;;;;;;9.80;5.80;;;;;;;;;;4902188;29;20184;-80
2022/01/14 06:51:42;;;;;;;10.03;5.60;;;;;;;;;;4902268;29;20191;-80
2022/01/14 06:54:08;;;;;;;9.20;5.60;;;;;;;;;;4903282;29;20188;-79
2022/01/14 06:56:34;;;;;;;11.20;5.73;;;;;;;;;;4906499;29;20232;-79
2022/01/14 06:59:00;;;;;;;9.50;5.47;;;;;;;;;;4906144;29;20192;-80
2022/01/14 07:01:27;;;;;;;10.73;5.87;;;;;;;;;;4906164;29;20188;-79
2022/01/14 07:03:52;;;;;;;9.53;5.10;;;;;;;;;;4921553;29;20181;-79
2022/01/14 07:06:18;;;;;;;10.80;5.60;;;;;;;;;;4905843;29;20204;-80
2022/01/14 07:08:44;;;;;;;11.27;5.90;;;;;;;;;;4906304;29;20640;-80
2022/01/14 07:11:12;;;;;;;8.63;5.43;;;;;;;;;;4905956;29;20243;-80
2022/01/14 07:13:38;;;;;;;9.10;5.53;;;;;;;;;;4905805;29;20235;-79
2022/01/14 07:16:05;;;;;;;12.20;5.63;;;;;;;;;;4905794;29;20549;-80
2022/01/14 07:18:31;;;;;;;8.23;5.03;;;;;;;;;;4905665;29;20188;-79
2022/01/14 07:20:57;;;;;;;11.73;5.60;;;;;;;;;;4905861;29;20195;-79
2022/01/14 07:23:23;;;;;;;8.90;5.30;;;;;;;;;;4921205;29;20184;-79
2022/01/14 07:25:49;;;;;;;9.70;5.43;;;;;;;;;;4905660;29;20196;-79
2022/01/14 07:28:15;;;;;;;10.37;5.37;;;;;;;;;;4921463;29;20207;-79
2022/01/14 07:30:41;;;;;;;8.53;5.37;;;;;;;;;;4905614;29;20198;-80
2022/01/14 07:33:07;;;;;;;10.93;5.60;;;;;;;;;;4921134;29;20236;-79
2022/01/14 07:35:33;;;;;;;9.53;5.27;;;;;;;;;;4906432;29;20187;-79
2022/01/14 07:37:59;;;;;;;8.47;5.47;;;;;;;;;;4905444;29;20209;-79
2022/01/14 07:40:25;;;;;;;7.77;5.27;;;;;;;;;;4905278;29;20639;-79
2022/01/14 07:42:51;;;;;;;8.57;5.40;;;;;;;;;;4921162;29;20208;-79
2022/01/14 07:45:19;;;;;;;8.63;4.93;;;;;;;;;;4920759;29;20220;-79
2022/01/14 07:47:45;;;;;;;10.33;5.73;;;;;;;;;;4905262;29;20207;-79
2022/01/14 07:50:13;;;;;;;9.93;5.93;;;;;;;;;;4905349;29;20599;-79
2022/01/14 07:52:39;;;;;;;9.80;5.37;;;;;;;;;;4905503;29;20226;-79
2022/01/14 07:55:06;;;;;;;8.00;5.33;;;;;;;;;;4920528;29;20207;-79
2022/01/14 07:57:32;;;;;;;9.20;5.93;;;;;;;;;;4920620;29;20206;-79
2022/01/14 07:59:58;;;;;;;9.57;5.43;;;;;;;;;;4904895;29;20186;-79
2022/01/14 08:02:25;;;;;;;8.77;5.40;;;;;;;;;;4904997;29;20193;-79
2022/01/14 08:04:51;;;;;;;9.27;5.63;;;;;;;;;;4937290;29;20177;-79
2022/01/14 08:07:22;;;;;;;10.80;5.50;;;;;;;;;;4904785;29;20224;-79
2022/01/14 08:09:48;;;;;;;10.50;5.27;;;;;;;;;;4905821;29;20266;-79
2022/01/14 08:12:15;;;;;;;8.40;5.50;;;;;;;;;;4904799;29;20693;-79
2022/01/14 08:14:41;;;;;;;10.57;5.70;;;;;;;;;;4920354;29;20215;-79
2022/01/14 08:17:07;;;;;;;10.93;6.00;;;;;;;;;;4905192;29;20208;-79
2022/01/14 08:19:34;;;;;;;11.50;6.30;;;;;;;;;;4920709;29;20292;-80
2022/01/14 08:22:04;;;;;;;11.30;6.17;;;;;;;;;;4920344;29;20267;-79
2022/01/14 08:24:31;;;;;;;12.83;6.33;;;;;;;;;;4904755;29;20187;-80
2022/01/14 08:26:57;;;;;;;9.90;6.30;;;;;;;;;;4920373;29;20197;-79
2022/01/14 08:29:23;;;;;;;11.13;6.60;;;;;;;;;;4904799;29;20275;-79
2022/01/14 08:31:49;;;;;;;11.67;6.53;;;;;;;;;;4904777;29;20247;-80
2022/01/14 08:34:16;;;;;;;11.13;6.97;;;;;;;;;;4904800;29;20188;-79
2022/01/14 08:36:42;;;;;;;11.00;6.77;;;;;;;;;;4904766;29;20199;-80
2022/01/14 08:39:08;;;;;;;10.90;6.30;;;;;;;;;;4920497;29;20200;-79
2022/01/14 08:41:34;;;;;;;11.23;6.43;;;;;;;;;;4904693;29;20189;-79
2022/01/14 08:44:00;;;;;;;11.60;6.97;;;;;;;;;;4904580;29;20554;-80
2022/01/14 08:46:27;;;;;;;13.10;6.60;;;;;;;;;;4904898;29;20579;-79
2022/01/14 08:48:54;;;;;;;12.60;6.93;;;;;;;;;;4920708;29;20194;-80
2022/01/14 08:51:20;;;;;;;14.90;7.60;;;;;;;;;;4904938;29;20211;-79
2022/01/14 08:53:46;;;;;;;12.10;6.90;;;;;;;;;;4904302;29;20258;-80
2022/01/14 08:56:12;;;;;;;12.23;7.10;;;;;;;;;;4919861;29;20181;-80
2022/01/14 08:58:40;;;;;;;10.03;6.87;;;;;;;;;;4904169;29;20193;-80
2022/01/14 09:01:06;;;;;;;13.30;7.37;;;;;;;;;;4920109;29;20190;-80
2022/01/14 09:03:32;;;;;;;13.80;7.60;;;;;;;;;;4904060;29;20180;-80
2022/01/14 09:05:58;;;;;;;13.50;7.80;;;;;;;;;;4904242;29;20195;-80
2022/01/14 09:08:24;;;;;;;14.67;8.63;;;;;;;;;;4904019;29;20215;-80
2022/01/14 09:10:50;;;;;;;13.37;7.97;;;;;;;;;;4903944;29;20189;-80
2022/01/14 09:13:17;;;;;;;12.10;7.53;;;;;;;;;;4903477;29;20220;-80
2022/01/14 09:15:43;;;;;;;14.40;8.10;;;;;;;;;;4904066;29;20185;-80
2022/01/14 09:18:09;;;;;;;14.37;7.80;;;;;;;;;;4903339;29;20349;-80
2022/01/14 09:20:35;;;;;;;13.00;8.10;;;;;;;;;;4903968;29;20191;-80
2022/01/14 09:23:01;;;;;;;13.67;8.33;;;;;;;;;;4903748;29;20188;-80
2022/01/14 09:25:27;;;;;;;13.40;8.00;;;;;;;;;;4903609;29;20249;-80
2022/01/14 09:27:54;;;;;;;16.97;8.73;;;;;;;;;;4903842;29;20213;-80
2022/01/14 09:30:21;;;;;;;14.10;8.30;;;;;;;;;;4919253;29;20189;-80
2022/01/14 09:32:47;;;;;;;15.23;8.70;;;;;;;;;;4919344;29;20246;-81
2022/01/14 09:35:13;;;;;;;15.63;8.50;;;;;;;;;;4919242;29;20237;-80
2022/01/14 09:37:40;;;;;;;13.53;8.87;;;;;;;;;;4919104;29;20197;-80
2022/01/14 09:40:07;;;;;;;15.20;9.07;;;;;;;;;;4919087;29;20198;-80
2022/01/14 09:42:33;;;;;;;14.77;8.53;;;;;;;;;;4919224;29;20182;-80
2022/01/14 09:44:59;;;;;;;13.33;8.03;;;;;;;;;;4903253;29;20272;-80
2022/01/14 09:47:25;;;;;;;12.07;8.13;;;;;;;;;;4903226;29;20207;-81
2022/01/14 09:49:52;;;;;;;12.87;8.50;;;;;;;;;;4918895;29;20179;-80
2022/01/14 09:52:18;;;;;;;13.13;8.70;;;;;;;;;;4918669;29;20229;-80
2022/01/14 09:54:45;;;;;;;12.97;8.37;;;;;;;;;;4918588;29;20222;-80
2022/01/14 09:57:12;;;;;;;14.67;8.40;;;;;;;;;;4903131;29;20230;-80
2022/01/14 09:59:38;;;;;;;13.03;8.50;;;;;;;;;;4918685;29;20178;-80
2022/01/14 10:02:05;;;;;;;14.10;9.20;;;;;;;;;;4918697;29;20215;-80
2022/01/14 10:04:31;;;;;;;14.40;9.03;;;;;;;;;;4903162;29;20269;-80
2022/01/14 10:06:58;;;;;;;14.50;9.10;;;;;;;;;;4918452;29;20215;-80
2022/01/14 10:09:36;;;;;;;15.83;9.13;;;;;;;;;;4918384;29;20180;-80
2022/01/14 10:12:20;;;;;;;17.83;10.13;;;;;;;;;;4918582;29;20179;-80
2022/01/14 10:14:52;;;;;;;14.47;9.63;;;;;;;;;;4903438;29;20190;-80
2022/01/14 10:17:18;;;;;;;13.80;9.13;;;;;;;;;;4918259;29;20264;-79
2022/01/14 10:19:45;;;;;;;15.03;7.60;;;;;;;;;;4902847;29;20189;-80
2022/01/14 10:22:18;;;;;;;12.87;7.80;;;;;;;;;;4918542;29;20177;-80
2022/01/14 10:25:20;;;;;;;10.07;7.40;;;;;;;;;;4902538;29;20283;-80
2022/01/14 10:27:48;;;;;;;12.27;7.50;;;;;;;;;;4860887;29;20275;-80
2022/01/14 10:30:15;;;;;;;12.57;7.50;;;;;;;;;;4907423;29;20229;-80
2022/01/14 10:32:42;;;;;;;12.70;7.33;;;;;;;;;;4918297;29;20213;-80
2022/01/14 10:35:09;;;;;;;11.63;7.73;;;;;;;;;;4902707;29;20192;-80
2022/01/14 10:37:35;;;;;;;12.67;9.37;;;;;;;;;;4902319;29;20277;-80
2022/01/14 10:40:03;;;;;;;14.70;7.87;;;;;;;;;;4902515;29;20706;-80
2022/01/14 10:42:31;;;;;;;12.00;7.60;;;;;;;;;;4902575;29;20193;-80
2022/01/14 10:45:13;;;;;;;16.63;8.63;;;;;;;;;;4917647;29;20200;-79
2022/01/14 10:47:40;;;;;;;13.53;8.00;;;;;;;;;;4918215;29;20205;-80
2022/01/14 10:50:06;;;;;;;12.13;7.77;;;;;;;;;;4917930;29;20182;-80
2022/01/14 10:52:32;;;;;;;14.73;7.77;;;;;;;;;;4902224;29;20205;-80
2022/01/14 10:54:59;;;;;;;13.33;8.03;;;;;;;;;;4902400;29;20193;-79
2022/01/14 10:57:27;;;;;;;15.53;8.90;;;;;;;;;;4918228;29;20202;-79
2022/01/14 10:59:55;;;;;;;11.53;7.63;;;;;;;;;;4918134;29;20177;-80
2022/01/14 11:02:42;;;;;;;12.37;8.50;;;;;;;;;;4903020;29;20196;-79
2022/01/14 11:05:11;;;;;;;13.63;7.90;;;;;;;;;;4918041;29;20177;-80
2022/01/14 11:07:37;;;;;;;11.67;7.80;;;;;;;;;;4918624;29;20220;-80
2022/01/14 11:10:13;;;;;;;12.07;7.73;;;;;;;;;;4902479;29;20190;-79
2022/01/14 11:12:40;;;;;;;11.20;7.70;;;;;;;;;;4917940;29;20212;-79
2022/01/14 11:15:07;;;;;;;13.03;7.80;;;;;;;;;;4902310;29;20192;-79
2022/01/14 11:17:33;;;;;;;10.30;7.23;;;;;;;;;;4902257;29;20198;-79
2022/01/14 11:19:59;;;;;;;14.43;8.40;;;;;;;;;;4902171;29;20186;-80
2022/01/14 11:25:11;;;;;;;11.50;7.07;;;;;;;;;;4934952;29;20217;-80
2022/01/14 11:27:37;;;;;;;10.63;6.47;;;;;;;;;;4902050;29;20204;-80
2022/01/14 11:30:04;;;;;;;11.23;6.67;;;;;;;;;;4917904;29;20556;-80
2022/01/14 11:32:50;;;;;;;12.90;8.17;;;;;;;;;;4917656;29;20215;-79
2022/01/14 11:35:20;;;;;;;11.47;6.47;;;;;;;;;;4917582;29;20717;-79
2022/01/14 11:37:46;;;;;;;11.27;6.77;;;;;;;;;;4917702;29;20263;-80
2022/01/14 11:40:15;;;;;;;9.87;6.43;;;;;;;;;;4902844;29;20722;-80
2022/01/14 11:42:46;;;;;;;8.97;6.07;;;;;;;;;;4905878;29;20194;-80
2022/01/14 11:45:15;;;;;;;9.10;6.47;;;;;;;;;;4905312;29;20187;-80
2022/01/14 11:47:44;;;;;;;9.27;5.93;;;;;;;;;;4921033;29;20231;-80
2022/01/14 11:50:19;;;;;;;9.63;6.13;;;;;;;;;;4921134;29;20308;-80
2022/01/14 11:52:45;;;;;;;10.47;6.80;;;;;;;;;;4921182;29;20282;-80
2022/01/14 11:55:23;;;;;;;9.57;6.47;;;;;;;;;;4920675;29;20187;-80
2022/01/14 11:57:53;;;;;;;12.13;6.37;;;;;;;;;;4920980;29;20574;-80
2022/01/14 12:00:26;;;;;;;8.70;6.10;;;;;;;;;;4920864;29;20181;-80
2022/01/14 12:02:53;;;;;;;10.80;6.17;;;;;;;;;;4921036;29;20272;-80
2022/01/14 12:05:20;;;;;;;11.10;6.40;;;;;;;;;;4920382;29;20193;-80
2022/01/14 12:08:02;;;;;;;10.37;6.70;;;;;;;;;;4932500;23;20226;-82
2022/01/14 12:10:32;;;;;;;9.97;6.50;;;;;;;;;;4918296;29;20177;-82
2022/01/14 12:13:18;;;;;;;10.07;6.73;;;;;;;;;;4902427;29;20266;-82
2022/01/14 12:15:56;;;;;;;9.90;6.50;;;;;;;;;;4918690;29;20209;-82
2022/01/14 12:18:41;;;;;;;9.37;6.50;;;;;;;;;;4918158;29;20228;-82
2022/01/14 12:21:07;;;;;;;9.47;6.37;;;;;;;;;;4918745;29;20665;-82
2022/01/14 12:23:33;;;;;;;10.07;6.77;;;;;;;;;;4902009;29;20214;-82
2022/01/14 12:26:13;;;;;;;11.60;7.17;;;;;;;;;;4902057;29;20273;-82
2022/01/14 12:28:39;;;;;;;11.23;6.73;;;;;;;;;;4917588;29;20198;-82
2022/01/14 12:31:05;;;;;;;10.30;6.47;;;;;;;;;;4917584;29;20195;-82
2022/01/14 12:33:50;;;;;;;10.43;6.60;;;;;;;;;;4917933;29;20211;-82
2022/01/14 12:36:17;;;;;;;9.97;6.33;;;;;;;;;;4918062;29;20629;-82
2022/01/14 12:38:44;;;;;;;8.80;6.33;;;;;;;;;;4902375;29;20206;-82
2022/01/14 12:41:17;;;;;;;8.23;5.67;;;;;;;;;;4902409;29;20563;-82
2022/01/14 12:44:09;;;;;;;8.37;5.53;;;;;;;;;;4902148;29;20660;-83
2022/01/14 12:46:45;;;;;;;10.67;6.50;;;;;;;;;;4915094;29;20219;-83
2022/01/14 12:49:15;;;;;;;10.53;7.03;;;;;;;;;;4903512;29;20193;-83
2022/01/14 12:51:41;;;;;;;9.00;6.13;;;;;;;;;;4916566;29;20216;-83
2022/01/14 12:54:11;;;;;;;12.70;6.33;;;;;;;;;;4917715;29;20208;-83
2022/01/14 12:56:39;;;;;;;9.37;6.00;;;;;;;;;;4902182;29;20180;-83
2022/01/14 12:59:05;;;;;;;10.13;6.27;;;;;;;;;;4917655;29;20185;-83
2022/01/14 13:01:36;;;;;;;10.30;6.27;;;;;;;;;;4917933;29;20179;-82
2022/01/14 13:04:04;;;;;;;9.43;6.43;;;;;;;;;;4901928;29;20225;-82
2022/01/14 13:06:51;;;;;;;9.57;6.17;;;;;;;;;;4901706;29;20221;-82
2022/01/14 13:09:20;;;;;;;9.33;6.67;;;;;;;;;;4917114;29;20261;-82
2022/01/14 13:11:49;;;;;;;10.63;6.53;;;;;;;;;;4917360;29;20180;-82
2022/01/14 13:14:23;;;;;;;8.73;6.27;;;;;;;;;;4917116;29;20654;-82
2022/01/14 13:16:50;;;;;;;8.90;5.70;;;;;;;;;;4916906;29;20287;-82
2022/01/14 13:19:20;;;;;;;9.63;5.50;;;;;;;;;;4901357;29;20188;-82
2022/01/14 13:21:46;;;;;;;8.53;5.67;;;;;;;;;;4917098;29;20193;-82
2022/01/14 13:24:21;;;;;;;8.80;5.83;;;;;;;;;;4916664;29;20281;-82
2022/01/14 13:27:01;;;;;;;8.50;5.73;;;;;;;;;;4916972;29;20692;-82
2022/01/14 13:29:27;;;;;;;10.37;6.10;;;;;;;;;;4916856;29;20190;-81
2022/01/14 13:31:53;;;;;;;7.80;5.70;;;;;;;;;;4900991;29;20278;-82
2022/01/14 13:34:20;;;;;;;9.17;5.93;;;;;;;;;;4900733;29;20692;-82
2022/01/14 13:36:47;;;;;;;9.10;5.97;;;;;;;;;;4916456;29;20647;-82
2022/01/14 13:39:13;;;;;;;8.97;5.90;;;;;;;;;;4901128;29;20184;-82
2022/01/14 13:41:42;;;;;;;8.67;5.90;;;;;;;;;;4900979;29;20202;-82
2022/01/14 13:44:35;;;;;;;9.67;6.10;;;;;;;;;;4917806;29;20200;-82
2022/01/14 13:47:07;;;;;;;10.30;6.57;;;;;;;;;;4914122;29;20214;-82
2022/01/14 13:49:33;;;;;;;9.30;6.27;;;;;;;;;;4901404;29;20192;-82
2022/01/14 13:52:01;;;;;;;9.17;6.33;;;;;;;;;;4916511;29;20187;-82
2022/01/14 13:54:27;;;;;;;9.87;6.53;;;;;;;;;;4900544;29;20199;-82
2022/01/14 13:56:53;;;;;;;9.30;6.83;;;;;;;;;;4901047;29;20224;-82
2022/01/14 13:59:20;;;;;;;10.80;7.20;;;;;;;;;;4917870;29;20649;-82
2022/01/14 14:01:57;;;;;;;10.40;7.37;;;;;;;;;;4916967;29;20190;-82
2022/01/14 14:04:29;;;;;;;11.53;7.43;;;;;;;;;;4916443;29;20190;-82
2022/01/14 14:07:08;;;;;;;12.03;7.57;;;;;;;;;;4900759;29;20241;-82
2022/01/14 14:10:07;;;;;;;12.83;7.67;;;;;;;;;;4901693;29;20177;-82
2022/01/14 14:12:39;;;;;;;12.43;7.60;;;;;;;;;;4915054;29;20207;-82
2022/01/14 14:18:07;;;;;;;11.63;7.73;;;;;;;;;;4917931;29;20227;-82
2022/01/14 14:20:34;;;;;;;11.37;7.97;;;;;;;;;;4918004;29;20180;-82
2022/01/14 14:23:34;;;;;;;11.03;6.93;;;;;;;;;;4900715;29;20586;-82
2022/01/14 14:26:00;;;;;;;12.03;7.07;;;;;;;;;;4886064;29;20200;-82
2022/01/14 14:28:27;;;;;;;10.80;7.43;;;;;;;;;;4900775;29;20208;-82
2022/01/14 14:30:53;;;;;;;11.93;7.40;;;;;;;;;;4916569;29;20254;-82
2022/01/14 14:33:20;;;;;;;10.90;6.83;;;;;;;;;;4915865;29;20209;-82
2022/01/14 14:35:47;;;;;;;11.37;7.53;;;;;;;;;;4915853;29;20231;-82
2022/01/14 14:38:19;;;;;;;11.40;7.60;;;;;;;;;;4915964;29;20196;-82
2022/01/14 14:40:51;;;;;;;11.27;7.33;;;;;;;;;;4916450;29;20217;-82
2022/01/14 14:43:17;;;;;;;11.80;7.57;;;;;;;;;;4915886;29;20222;-82
2022/01/14 14:45:44;;;;;;;10.83;7.37;;;;;;;;;;4900312;29;20178;-82
2022/01/14 14:48:10;;;;;;;12.67;7.20;;;;;;;;;;4916269;29;20196;-82
2022/01/14 14:50:37;;;;;;;10.77;7.63;;;;;;;;;;4915561;29;20729;-82
2022/01/14 14:53:04;;;;;;;12.50;7.77;;;;;;;;;;4916496;29;20206;-82
2022/01/14 14:55:31;;;;;;;13.20;8.33;;;;;;;;;;4900552;29;20185;-82
2022/01/14 14:57:58;;;;;;;13.27;8.10;;;;;;;;;;4916119;29;20194;-82
2022/01/14 15:00:25;;;;;;;13.50;8.30;;;;;;;;;;4916226;29;20175;-82
2022/01/14 15:02:52;;;;;;;12.53;7.83;;;;;;;;;;4916348;29;20586;-82
2022/01/14 15:05:19;;;;;;;13.10;8.00;;;;;;;;;;4915969;29;20182;-82
2022/01/14 15:07:45;;;;;;;13.80;8.30;;;;;;;;;;4915802;29;20218;-82
2022/01/14 15:10:12;;;;;;;11.63;7.13;;;;;;;;;;4917505;29;20230;-82
2022/01/14 15:12:38;;;;;;;13.13;7.93;;;;;;;;;;4899528;29;20202;-82
2022/01/14 15:15:11;;;;;;;11.67;7.73;;;;;;;;;;4900218;29;20194;-82